createdAt,value
2023-04-30T00:00:11.299Z,9.31
2023-04-30T00:02:39.245Z,9.27
2023-04-30T00:05:07.585Z,9.29
2023-04-30T00:07:35.334Z,9.28
2023-04-30T00:10:04.705Z,9.28
2023-04-30T00:12:34.925Z,9.29
2023-04-30T00:15:02.719Z,9.26
2023-04-30T00:17:30.586Z,9.28
2023-04-30T00:19:58.371Z,9.29
2023-04-30T00:22:26.166Z,9.29
2023-04-30T00:24:53.961Z,9.28
2023-04-30T00:27:21.825Z,9.30
2023-04-30T00:29:51.060Z,9.25
2023-04-30T00:32:18.932Z,9.29
2023-04-30T00:34:47.039Z,9.30
2023-04-30T00:37:14.805Z,9.29
2023-04-30T00:39:42.653Z,9.29
2023-04-30T00:42:10.427Z,9.28
2023-04-30T00:44:38.200Z,9.27
2023-04-30T00:47:07.319Z,9.27
2023-04-30T00:49:35.236Z,9.26
2023-04-30T00:52:03.074Z,9.25
2023-04-30T00:54:31.048Z,9.25
2023-04-30T00:56:59.538Z,9.25
2023-04-30T00:59:27.606Z,9.28
2023-04-30T01:01:56.111Z,9.27
2023-04-30T01:04:25.480Z,9.27
2023-04-30T01:06:53.353Z,9.25
2023-04-30T01:09:21.184Z,9.28
2023-04-30T01:11:57.993Z,9.26
2023-04-30T01:14:29.396Z,9.27
2023-04-30T01:17:06.443Z,9.24
2023-04-30T01:19:42.766Z,9.25
2023-04-30T01:22:13.625Z,9.26
2023-04-30T01:24:53.855Z,9.27
2023-04-30T01:27:31.316Z,9.28
2023-04-30T01:30:00.878Z,9.29
2023-04-30T01:32:28.672Z,9.24
2023-04-30T01:34:56.913Z,9.25
2023-04-30T01:37:32.726Z,9.20
2023-04-30T01:40:10.639Z,9.20
2023-04-30T01:42:43.287Z,9.09
2023-04-30T01:45:22.948Z,9.12
2023-04-30T01:47:54.565Z,9.09
2023-04-30T01:50:28.345Z,9.09
2023-04-30T01:52:59.050Z,9.10
2023-04-30T01:55:30.112Z,9.08
2023-04-30T01:57:59.583Z,9.06
2023-04-30T02:00:30.619Z,9.03
2023-04-30T02:02:58.671Z,9.03
2023-04-30T02:05:26.557Z,9.02
2023-04-30T02:07:54.647Z,9.01
2023-04-30T02:10:23.589Z,8.99
2023-04-30T02:12:51.499Z,8.98
2023-04-30T02:15:19.315Z,9.04
2023-04-30T02:17:48.518Z,9.04
2023-04-30T02:20:16.283Z,9.04
2023-04-30T02:22:44.332Z,9.02
2023-04-30T02:25:12.731Z,8.93
2023-04-30T02:27:40.593Z,9.01
2023-04-30T02:30:09.458Z,9.00
2023-04-30T02:32:37.501Z,9.03
2023-04-30T02:35:07.443Z,9.04
2023-04-30T02:37:35.198Z,9.02
2023-04-30T02:40:03.123Z,8.99
2023-04-30T02:42:30.969Z,8.98
2023-04-30T02:44:59.411Z,8.98
2023-04-30T02:47:27.249Z,8.95
2023-04-30T02:49:55.108Z,8.93
2023-04-30T02:52:24.473Z,8.96
2023-04-30T02:54:52.240Z,8.96
2023-04-30T02:57:19.972Z,8.99
2023-04-30T02:59:47.733Z,8.97
2023-04-30T03:02:15.632Z,8.97
2023-04-30T03:04:43.381Z,8.96
2023-04-30T03:07:11.498Z,8.93
2023-04-30T03:09:40.713Z,8.95
2023-04-30T03:12:08.476Z,8.94
2023-04-30T03:14:36.222Z,8.94
2023-04-30T03:17:04.017Z,8.94
2023-04-30T03:19:32.062Z,8.96
2023-04-30T03:22:00.017Z,8.81
2023-04-30T03:24:27.792Z,8.94
2023-04-30T03:26:56.920Z,8.92
2023-04-30T03:29:24.740Z,8.86
2023-04-30T03:31:52.771Z,8.93
2023-04-30T03:34:20.654Z,8.90
2023-04-30T03:36:48.435Z,8.83
2023-04-30T03:39:16.427Z,8.89
2023-04-30T03:41:44.177Z,8.86
2023-04-30T03:44:16.008Z,8.84
2023-04-30T03:46:44.281Z,8.82
2023-04-30T03:49:12.240Z,8.82
2023-04-30T03:51:41.944Z,8.84
2023-04-30T03:54:10.159Z,8.85
2023-04-30T03:56:38.579Z,8.86
2023-04-30T03:59:06.681Z,8.88
2023-04-30T04:01:35.864Z,8.90
2023-04-30T04:04:03.696Z,8.87
2023-04-30T04:06:31.861Z,8.87
2023-04-30T04:08:59.684Z,8.85
2023-04-30T04:11:27.456Z,8.89
2023-04-30T04:13:55.723Z,8.91
2023-04-30T04:16:23.538Z,8.92
2023-04-30T04:18:52.655Z,8.86
2023-04-30T04:21:20.428Z,8.94
2023-04-30T04:23:48.224Z,8.93
2023-04-30T04:26:16.584Z,8.95
2023-04-30T04:28:44.325Z,8.92
2023-04-30T04:31:12.882Z,8.94
2023-04-30T04:33:40.685Z,8.96
2023-04-30T04:36:09.923Z,8.96
2023-04-30T04:38:37.657Z,8.95
2023-04-30T04:41:05.455Z,8.99
2023-04-30T04:43:33.227Z,8.95
2023-04-30T04:46:01.116Z,8.95
2023-04-30T04:48:28.873Z,8.93
2023-04-30T04:50:56.637Z,8.92
2023-04-30T04:53:25.834Z,8.92
2023-04-30T04:55:53.594Z,8.94
2023-04-30T04:58:21.368Z,8.96
2023-04-30T05:00:49.102Z,9.02
2023-04-30T05:03:17.022Z,9.04
2023-04-30T05:05:44.819Z,9.08
2023-04-30T05:08:12.615Z,9.10
2023-04-30T05:10:41.736Z,9.19
2023-04-30T05:13:09.506Z,9.24
2023-04-30T05:15:37.271Z,9.28
2023-04-30T05:18:05.260Z,9.33
2023-04-30T05:20:33.114Z,9.41
2023-04-30T05:23:01.002Z,9.46
2023-04-30T05:25:29.597Z,9.50
2023-04-30T05:27:58.768Z,9.52
2023-04-30T05:30:26.657Z,9.50
2023-04-30T05:32:54.726Z,9.57
2023-04-30T05:35:22.554Z,9.62
2023-04-30T05:37:50.358Z,9.70
2023-04-30T05:40:18.399Z,9.80
2023-04-30T05:42:46.180Z,9.91
2023-04-30T05:45:17.288Z,9.99
2023-04-30T05:47:45.316Z,10.03
2023-04-30T05:50:13.293Z,10.08
2023-04-30T05:52:41.076Z,10.17
2023-04-30T05:55:11.804Z,10.21
2023-04-30T05:57:39.596Z,10.21
2023-04-30T06:00:08.868Z,10.33
2023-04-30T06:02:38.134Z,10.43
2023-04-30T06:05:06.789Z,10.46
2023-04-30T06:07:34.613Z,10.50
2023-04-30T06:10:02.528Z,10.60
2023-04-30T06:12:30.343Z,10.68
2023-04-30T06:14:58.209Z,10.63
2023-04-30T06:17:26.011Z,10.68
2023-04-30T06:19:55.584Z,10.75
2023-04-30T06:22:23.669Z,10.64
2023-04-30T06:24:51.429Z,10.89
2023-04-30T06:27:19.211Z,10.95
2023-04-30T06:29:46.984Z,11.08
2023-04-30T06:32:14.759Z,11.17
2023-04-30T06:34:42.504Z,11.27
2023-04-30T06:37:11.644Z,11.38
2023-04-30T06:39:39.402Z,11.46
2023-04-30T06:42:07.171Z,11.45
2023-04-30T06:44:34.952Z,11.55
2023-04-30T06:47:02.756Z,11.70
2023-04-30T06:49:30.551Z,11.74
2023-04-30T06:51:58.593Z,11.72
2023-04-30T06:54:27.815Z,11.85
2023-04-30T06:56:55.667Z,11.75
2023-04-30T06:59:23.439Z,11.82
2023-04-30T07:01:51.332Z,11.95
2023-04-30T07:04:20.094Z,12.03
2023-04-30T07:06:47.920Z,12.09
2023-04-30T07:09:16.645Z,12.16
2023-04-30T07:11:45.790Z,12.19
2023-04-30T07:14:13.612Z,12.23
2023-04-30T07:16:41.412Z,12.32
2023-04-30T07:19:09.199Z,12.43
2023-04-30T07:21:36.940Z,12.54
2023-04-30T07:24:05.460Z,12.60
2023-04-30T07:26:33.189Z,12.63
2023-04-30T07:29:02.385Z,12.82
2023-04-30T07:31:30.414Z,12.97
2023-04-30T07:33:58.533Z,13.03
2023-04-30T07:36:27.460Z,13.08
2023-04-30T07:38:55.264Z,13.10
2023-04-30T07:41:23.098Z,13.05
2023-04-30T07:43:50.923Z,12.93
2023-04-30T07:46:20.129Z,13.11
2023-04-30T07:48:47.983Z,13.24
2023-04-30T07:51:15.723Z,13.22
2023-04-30T07:53:43.496Z,13.22
2023-04-30T07:56:11.231Z,13.29
2023-04-30T07:58:39.018Z,13.33
2023-04-30T08:01:06.834Z,13.37
2023-04-30T08:03:36.801Z,13.49
2023-04-30T08:06:05.302Z,13.63
2023-04-30T08:08:33.126Z,13.46
2023-04-30T08:11:00.980Z,13.53
2023-04-30T08:13:28.730Z,13.67
2023-04-30T08:15:56.469Z,13.74
2023-04-30T08:18:24.238Z,13.81
2023-04-30T08:20:53.366Z,14.01
2023-04-30T08:23:21.188Z,14.15
2023-04-30T08:25:48.949Z,14.48
2023-04-30T08:28:16.744Z,14.36
2023-04-30T08:30:44.690Z,14.19
2023-04-30T08:33:12.671Z,14.30
2023-04-30T08:35:40.505Z,14.36
2023-04-30T08:38:10.068Z,14.76
2023-04-30T08:40:50.879Z,14.89
2023-04-30T08:43:19.967Z,14.97
2023-04-30T08:45:47.844Z,14.93
2023-04-30T08:48:16.629Z,15.18
2023-04-30T08:50:44.523Z,15.05
2023-04-30T08:53:15.421Z,15.02
2023-04-30T08:55:43.182Z,14.82
2023-04-30T08:58:11.397Z,14.84
2023-04-30T09:00:39.936Z,14.89
2023-04-30T09:03:08.624Z,14.81
2023-04-30T09:05:37.984Z,15.14
2023-04-30T09:08:06.582Z,15.65
2023-04-30T09:10:36.615Z,15.69
2023-04-30T09:13:07.487Z,15.73
2023-04-30T09:15:36.399Z,16.08
2023-04-30T09:18:09.102Z,16.02
2023-04-30T09:20:37.067Z,15.28
2023-04-30T09:23:08.982Z,15.60
2023-04-30T09:25:42.265Z,15.63
2023-04-30T09:28:11.525Z,15.92
2023-04-30T09:30:39.848Z,16.23
2023-04-30T09:33:10.769Z,16.51
2023-04-30T09:35:41.739Z,16.54
2023-04-30T09:38:09.983Z,16.58
2023-04-30T09:40:38.600Z,16.30
2023-04-30T09:43:08.192Z,16.11
2023-04-30T09:45:44.633Z,16.72
2023-04-30T09:48:16.860Z,16.78
2023-04-30T09:50:47.245Z,16.63
2023-04-30T09:53:17.901Z,16.52
2023-04-30T09:55:47.126Z,16.69
2023-04-30T09:58:17.770Z,17.04
2023-04-30T10:00:48.311Z,17.13
2023-04-30T10:03:16.561Z,17.43
2023-04-30T10:05:47.347Z,17.50
2023-04-30T10:08:20.595Z,17.79
2023-04-30T10:10:52.450Z,17.80
2023-04-30T10:13:21.861Z,18.18
2023-04-30T10:15:51.828Z,17.57
2023-04-30T10:18:21.563Z,17.99
2023-04-30T10:20:51.903Z,17.96
2023-04-30T10:23:19.762Z,17.39
2023-04-30T10:25:47.584Z,17.21
2023-04-30T10:28:15.606Z,17.44
2023-04-30T10:30:45.314Z,16.92
2023-04-30T10:33:19.597Z,17.28
2023-04-30T10:35:52.463Z,17.54
2023-04-30T10:38:23.933Z,17.21
2023-04-30T10:40:52.086Z,16.68
2023-04-30T10:43:22.258Z,16.88
2023-04-30T10:45:51.622Z,17.03
2023-04-30T10:48:25.431Z,17.58
2023-04-30T10:50:54.287Z,18.02
2023-04-30T10:53:23.033Z,18.06
2023-04-30T10:55:54.889Z,18.67
2023-04-30T10:58:27.674Z,18.28
2023-04-30T11:01:05.271Z,18.25
2023-04-30T11:03:33.747Z,18.94
2023-04-30T11:06:03.956Z,19.37
2023-04-30T11:08:35.755Z,19.62
2023-04-30T11:11:05.195Z,19.39
2023-04-30T11:13:43.274Z,18.57
2023-04-30T11:16:12.597Z,17.62
2023-04-30T11:18:45.760Z,18.42
2023-04-30T11:21:13.916Z,18.98
2023-04-30T11:23:43.530Z,19.66
2023-04-30T11:26:11.806Z,19.87
2023-04-30T11:28:39.677Z,20.04
2023-04-30T11:31:07.644Z,19.10
2023-04-30T11:33:36.976Z,18.91
2023-04-30T11:36:05.300Z,19.14
2023-04-30T11:38:38.600Z,19.23
2023-04-30T11:41:06.493Z,19.73
2023-04-30T11:43:35.529Z,20.31
2023-04-30T11:46:06.098Z,20.37
2023-04-30T11:48:36.820Z,20.60
2023-04-30T11:51:06.445Z,20.40
2023-04-30T11:53:34.214Z,20.36
2023-04-30T11:56:06.423Z,19.47
2023-04-30T11:58:38.106Z,20.26
2023-04-30T12:01:06.477Z,20.62
2023-04-30T12:03:34.402Z,20.58
2023-04-30T12:06:03.696Z,20.42
2023-04-30T12:08:31.489Z,19.83
2023-04-30T12:10:59.264Z,19.62
2023-04-30T12:13:26.990Z,19.73
2023-04-30T12:16:01.733Z,19.93
2023-04-30T12:18:29.597Z,20.02
2023-04-30T12:20:57.488Z,20.44
2023-04-30T12:23:26.833Z,20.90
2023-04-30T12:25:54.685Z,20.22
2023-04-30T12:28:24.525Z,20.13
2023-04-30T12:30:54.682Z,20.23
2023-04-30T12:33:22.609Z,20.49
2023-04-30T12:35:54.080Z,19.80
2023-04-30T12:38:23.348Z,18.65
2023-04-30T12:40:52.499Z,18.45
2023-04-30T12:43:20.241Z,19.00
2023-04-30T12:45:51.637Z,19.25
2023-04-30T12:48:20.697Z,19.92
2023-04-30T12:50:56.508Z,20.69
2023-04-30T12:53:24.813Z,20.95
2023-04-30T12:56:10.596Z,20.00
2023-04-30T12:58:39.432Z,19.67
2023-04-30T13:01:11.398Z,19.38
2023-04-30T13:03:39.430Z,20.09
2023-04-30T13:06:07.463Z,20.49
2023-04-30T13:08:45.645Z,20.68
2023-04-30T13:11:15.386Z,20.86
2023-04-30T13:13:43.590Z,21.04
2023-04-30T13:16:11.521Z,21.60
2023-04-30T13:18:39.308Z,21.60
2023-04-30T13:21:07.276Z,21.44
2023-04-30T13:23:44.539Z,21.09
2023-04-30T13:26:22.692Z,20.83
2023-04-30T13:28:50.453Z,21.01
2023-04-30T13:31:18.511Z,21.46
2023-04-30T13:33:46.391Z,20.91
2023-04-30T13:36:14.256Z,20.73
2023-04-30T13:38:42.061Z,21.36
2023-04-30T13:41:09.829Z,22.08
2023-04-30T13:43:42.068Z,22.11
2023-04-30T13:46:10.280Z,21.64
2023-04-30T13:48:38.152Z,21.68
2023-04-30T13:51:06.044Z,21.60
2023-04-30T13:53:33.826Z,21.01
2023-04-30T13:56:03.345Z,20.99
2023-04-30T13:58:31.172Z,20.46
2023-04-30T14:01:00.499Z,21.11
2023-04-30T14:03:28.410Z,21.69
2023-04-30T14:05:56.449Z,21.87
2023-04-30T14:08:24.267Z,21.60
2023-04-30T14:10:52.443Z,22.08
2023-04-30T14:13:20.297Z,22.59
2023-04-30T14:15:48.186Z,22.40
2023-04-30T14:18:18.447Z,21.57
2023-04-30T14:20:46.275Z,21.34
2023-04-30T14:23:14.113Z,21.00
2023-04-30T14:25:42.046Z,20.90
2023-04-30T14:28:10.035Z,20.76
2023-04-30T14:30:37.778Z,21.02
2023-04-30T14:33:11.136Z,21.40
2023-04-30T14:35:41.585Z,21.21
2023-04-30T14:38:09.520Z,21.94
2023-04-30T14:40:37.466Z,22.54
2023-04-30T14:43:05.437Z,22.80
2023-04-30T14:45:34.164Z,23.09
2023-04-30T14:48:03.947Z,22.31
2023-04-30T14:50:33.323Z,22.00
2023-04-30T14:53:02.623Z,21.79
2023-04-30T14:55:30.385Z,21.78
2023-04-30T14:57:58.550Z,22.47
2023-04-30T15:00:26.437Z,22.62
2023-04-30T15:02:54.306Z,22.91
2023-04-30T15:05:22.308Z,23.15
2023-04-30T15:07:50.169Z,22.10
2023-04-30T15:10:19.447Z,20.77
2023-04-30T15:12:47.221Z,20.79
2023-04-30T15:15:16.264Z,20.61
2023-04-30T15:17:46.139Z,20.70
2023-04-30T15:20:14.121Z,20.92
2023-04-30T15:22:43.250Z,21.34
2023-04-30T15:25:11.106Z,21.52
2023-04-30T15:27:41.567Z,21.54
2023-04-30T15:30:10.589Z,21.03
2023-04-30T15:32:38.960Z,20.74
2023-04-30T15:35:07.568Z,21.00
2023-04-30T15:37:35.598Z,20.97
2023-04-30T15:40:04.766Z,20.75
2023-04-30T15:42:32.600Z,21.13
2023-04-30T15:45:01.857Z,20.75
2023-04-30T15:47:29.642Z,20.90
2023-04-30T15:49:57.488Z,21.02
2023-04-30T15:52:25.572Z,21.26
2023-04-30T15:54:53.397Z,21.04
2023-04-30T15:57:21.740Z,21.09
2023-04-30T15:59:49.554Z,21.51
2023-04-30T16:02:18.649Z,20.99
2023-04-30T16:04:46.392Z,20.62
2023-04-30T16:07:14.141Z,20.53
2023-04-30T16:09:45.745Z,20.79
2023-04-30T16:12:13.617Z,20.96
2023-04-30T16:14:41.403Z,21.15
2023-04-30T16:17:09.688Z,21.52
2023-04-30T16:19:38.862Z,21.47
2023-04-30T16:22:08.949Z,20.95
2023-04-30T16:24:36.953Z,20.99
2023-04-30T16:27:04.863Z,20.76
2023-04-30T16:29:32.632Z,20.69
2023-04-30T16:32:00.537Z,19.94
2023-04-30T16:34:28.314Z,20.17
2023-04-30T16:36:57.441Z,20.43
2023-04-30T16:39:25.201Z,20.73
2023-04-30T16:41:52.947Z,20.38
2023-04-30T16:44:21.812Z,20.23
2023-04-30T16:46:50.593Z,20.31
2023-04-30T16:49:18.336Z,20.42
2023-04-30T16:51:46.081Z,20.20
2023-04-30T16:54:15.223Z,20.17
2023-04-30T16:56:43.016Z,20.02
2023-04-30T16:59:11.040Z,19.96
2023-04-30T17:01:38.877Z,20.10
2023-04-30T17:04:06.761Z,20.08
2023-04-30T17:06:35.540Z,19.74
2023-04-30T17:09:03.554Z,19.46
2023-04-30T17:11:32.680Z,19.46
2023-04-30T17:14:00.539Z,19.43
2023-04-30T17:16:28.373Z,19.44
2023-04-30T17:18:56.165Z,19.47
2023-04-30T17:21:23.962Z,19.27
2023-04-30T17:23:51.726Z,19.07
2023-04-30T17:26:20.355Z,18.82
2023-04-30T17:28:49.495Z,18.85
2023-04-30T17:31:17.307Z,18.62
2023-04-30T17:33:46.143Z,18.63
2023-04-30T17:36:14.241Z,18.45
2023-04-30T17:38:42.074Z,18.21
2023-04-30T17:41:09.831Z,17.97
2023-04-30T17:43:37.616Z,17.77
2023-04-30T17:46:06.885Z,17.87
2023-04-30T17:48:34.700Z,17.85
2023-04-30T17:51:02.708Z,17.78
2023-04-30T17:53:30.516Z,17.76
2023-04-30T17:55:59.402Z,17.67
2023-04-30T17:58:28.144Z,17.63
2023-04-30T18:00:56.584Z,17.55
2023-04-30T18:03:25.866Z,17.49
2023-04-30T18:05:53.778Z,17.43
2023-04-30T18:08:21.523Z,17.29
2023-04-30T18:10:49.515Z,17.24
2023-04-30T18:13:17.364Z,17.24
2023-04-30T18:15:45.134Z,17.19
2023-04-30T18:18:13.049Z,17.10
2023-04-30T18:20:42.392Z,17.02
2023-04-30T18:23:10.279Z,17.01
2023-04-30T18:25:38.084Z,16.85
2023-04-30T18:28:06.139Z,16.77
2023-04-30T18:30:34.768Z,16.74
2023-04-30T18:33:02.654Z,16.60
2023-04-30T18:35:30.469Z,16.45
2023-04-30T18:37:59.738Z,16.29
2023-04-30T18:40:28.287Z,16.18
2023-04-30T18:42:56.903Z,16.05
2023-04-30T18:45:25.049Z,15.94
2023-04-30T18:47:52.898Z,15.89
2023-04-30T18:50:21.612Z,15.86
2023-04-30T18:52:49.554Z,15.73
2023-04-30T18:55:18.898Z,15.65
2023-04-30T18:57:46.662Z,15.58
2023-04-30T19:00:15.232Z,15.53
2023-04-30T19:02:44.189Z,15.45
2023-04-30T19:05:12.757Z,15.38
2023-04-30T19:07:40.934Z,15.38
2023-04-30T19:10:09.344Z,15.33
2023-04-30T19:12:38.597Z,15.32
2023-04-30T19:15:08.154Z,15.28
2023-04-30T19:17:36.415Z,15.25
2023-04-30T19:20:04.750Z,15.23
2023-04-30T19:22:32.614Z,15.18
2023-04-30T19:25:00.480Z,15.13
2023-04-30T19:27:28.214Z,15.01
2023-04-30T19:29:58.532Z,14.99
2023-04-30T19:32:26.751Z,14.97
2023-04-30T19:34:54.940Z,14.93
2023-04-30T19:37:22.945Z,14.90
2023-04-30T19:39:50.786Z,14.84
2023-04-30T19:42:18.540Z,14.82
2023-04-30T19:44:46.344Z,14.80
2023-04-30T19:47:15.461Z,14.78
2023-04-30T19:49:44.625Z,14.71
2023-04-30T19:52:12.409Z,14.66
2023-04-30T19:54:40.411Z,14.64
2023-04-30T19:57:08.168Z,14.58
2023-04-30T19:59:36.016Z,14.54
2023-04-30T20:02:03.878Z,14.53
2023-04-30T20:04:33.037Z,14.41
2023-04-30T20:07:01.240Z,14.35
2023-04-30T20:09:29.046Z,14.32
2023-04-30T20:11:56.841Z,14.35
2023-04-30T20:14:24.888Z,14.32
2023-04-30T20:16:54.430Z,14.33
2023-04-30T20:19:23.301Z,14.25
2023-04-30T20:21:52.515Z,14.16
2023-04-30T20:24:21.660Z,14.15
2023-04-30T20:26:49.493Z,14.08
2023-04-30T20:29:18.586Z,14.05
2023-04-30T20:31:46.653Z,14.01
2023-04-30T20:34:14.585Z,13.99
2023-04-30T20:36:42.440Z,13.94
2023-04-30T20:39:11.570Z,13.82
2023-04-30T20:41:39.438Z,13.82
2023-04-30T20:44:07.253Z,13.75
2023-04-30T20:46:36.287Z,13.66
2023-04-30T20:49:05.140Z,13.56
2023-04-30T20:51:33.093Z,13.54
2023-04-30T20:54:00.917Z,13.50
2023-04-30T20:56:30.267Z,13.45
2023-04-30T20:58:58.070Z,13.27
2023-04-30T21:01:25.919Z,13.37
2023-04-30T21:03:55.639Z,13.35
2023-04-30T21:06:23.502Z,13.35
2023-04-30T21:08:51.319Z,13.29
2023-04-30T21:11:19.453Z,13.24
2023-04-30T21:13:51.273Z,13.17
2023-04-30T21:16:19.482Z,13.17
2023-04-30T21:18:48.798Z,13.12
2023-04-30T21:21:17.024Z,13.07
2023-04-30T21:23:47.361Z,13.01
2023-04-30T21:26:23.351Z,12.96
2023-04-30T21:28:52.811Z,12.89
2023-04-30T21:31:21.003Z,12.79
2023-04-30T21:33:48.947Z,12.83
2023-04-30T21:36:18.263Z,12.78
2023-04-30T21:38:46.530Z,12.71
2023-04-30T21:41:15.455Z,12.62
2023-04-30T21:43:43.554Z,12.68
2023-04-30T21:46:13.596Z,12.62
2023-04-30T21:48:41.965Z,12.61
2023-04-30T21:51:15.029Z,12.60
2023-04-30T21:53:43.417Z,12.54
2023-04-30T21:56:11.959Z,12.53
2023-04-30T21:58:40.492Z,12.53
2023-04-30T22:01:08.445Z,12.46
2023-04-30T22:03:38.132Z,12.45
2023-04-30T22:06:06.402Z,12.40
2023-04-30T22:08:34.227Z,12.35
2023-04-30T22:11:04.746Z,12.40
2023-04-30T22:13:32.592Z,12.32
2023-04-30T22:16:03.545Z,12.31
2023-04-30T22:18:31.643Z,12.30
2023-04-30T22:21:02.313Z,12.27
2023-04-30T22:23:30.322Z,12.24
2023-04-30T22:25:58.136Z,12.23
2023-04-30T22:28:26.284Z,12.18
2023-04-30T22:30:59.372Z,12.13
2023-04-30T22:33:27.648Z,12.10
2023-04-30T22:35:56.218Z,12.06
2023-04-30T22:38:25.608Z,12.04
2023-04-30T22:40:53.404Z,12.05
2023-04-30T22:43:21.469Z,11.97
2023-04-30T22:45:49.563Z,11.96
2023-04-30T22:48:17.766Z,11.95
2023-04-30T22:50:45.924Z,11.92
2023-04-30T22:53:14.449Z,11.90
2023-04-30T22:55:43.759Z,11.89
2023-04-30T22:58:11.584Z,11.86
2023-04-30T23:00:39.722Z,11.76
2023-04-30T23:03:07.640Z,11.81
2023-04-30T23:05:35.563Z,11.74
2023-04-30T23:08:04.434Z,11.72
2023-04-30T23:10:32.323Z,11.69
2023-04-30T23:13:01.540Z,11.69
2023-04-30T23:15:29.732Z,11.66
2023-04-30T23:18:00.228Z,11.60
2023-04-30T23:20:28.477Z,11.57
2023-04-30T23:22:56.510Z,11.53
2023-04-30T23:25:24.620Z,11.50
2023-04-30T23:27:52.815Z,11.50
2023-04-30T23:30:23.504Z,11.47
2023-04-30T23:32:51.380Z,11.44
2023-04-30T23:35:19.378Z,11.38
2023-04-30T23:37:47.530Z,11.37
2023-04-30T23:40:15.958Z,11.34
2023-04-30T23:42:43.794Z,11.32
2023-04-30T23:45:12.048Z,11.31
2023-04-30T23:47:41.411Z,11.26
2023-04-30T23:50:10.362Z,11.26
2023-04-30T23:52:38.826Z,11.24
2023-04-30T23:55:07.854Z,11.23
2023-04-30T23:57:35.965Z,11.19
